createdAt,value
2023-03-28T00:00:34.292Z,0.00
2023-03-28T00:01:34.284Z,0.00
2023-03-28T00:02:34.312Z,0.00
2023-03-28T00:03:34.315Z,0.00
2023-03-28T00:04:34.276Z,0.00
2023-03-28T00:05:34.310Z,0.00
2023-03-28T00:06:34.267Z,0.00
2023-03-28T00:07:34.263Z,0.00
2023-03-28T00:08:34.269Z,0.00
2023-03-28T00:09:34.260Z,0.00
2023-03-28T00:10:34.254Z,0.00
2023-03-28T00:11:34.246Z,0.00
2023-03-28T00:12:34.246Z,0.00
2023-03-28T00:13:34.240Z,0.00
2023-03-28T00:14:34.252Z,0.00
2023-03-28T00:15:34.255Z,0.00
2023-03-28T00:16:34.275Z,0.00
2023-03-28T00:17:34.240Z,0.00
2023-03-28T00:18:34.212Z,0.00
2023-03-28T00:19:34.207Z,0.00
2023-03-28T00:20:34.199Z,0.00
2023-03-28T00:21:34.200Z,0.00
2023-03-28T00:22:34.193Z,0.00
2023-03-28T00:23:34.188Z,0.00
2023-03-28T00:24:34.181Z,0.00
2023-03-28T00:25:34.185Z,0.00
2023-03-28T00:26:34.174Z,0.00
2023-03-28T00:27:34.163Z,0.00
2023-03-28T00:28:34.159Z,0.00
2023-03-28T00:29:34.153Z,0.00
2023-03-28T00:30:34.179Z,0.00
2023-03-28T00:31:34.172Z,0.00
2023-03-28T00:32:34.156Z,0.00
2023-03-28T00:33:34.144Z,0.00
2023-03-28T00:34:34.136Z,0.00
2023-03-28T00:35:34.134Z,0.00
2023-03-28T00:36:34.123Z,0.00
2023-03-28T00:37:34.460Z,0.00
2023-03-28T00:38:34.118Z,0.00
2023-03-28T00:39:34.102Z,0.00
2023-03-28T00:40:34.106Z,0.00
2023-03-28T00:41:34.095Z,0.00
2023-03-28T00:42:34.109Z,0.00
2023-03-28T00:43:34.085Z,0.00
2023-03-28T00:44:34.086Z,0.00
2023-03-28T00:45:34.081Z,0.00
2023-03-28T00:46:34.112Z,0.00
2023-03-28T00:47:34.100Z,0.00
2023-03-28T00:48:34.071Z,0.00
2023-03-28T00:49:34.058Z,0.00
2023-03-28T00:50:34.056Z,0.00
2023-03-28T00:51:34.050Z,0.00
2023-03-28T00:52:34.043Z,0.00
2023-03-28T00:53:34.039Z,0.00
2023-03-28T00:54:34.041Z,0.00
2023-03-28T00:55:34.031Z,0.00
2023-03-28T00:56:34.063Z,0.00
2023-03-28T00:57:34.022Z,0.00
2023-03-28T00:58:34.017Z,0.00
2023-03-28T00:59:34.006Z,0.00
2023-03-28T01:00:34.010Z,0.00
2023-03-28T01:01:34.060Z,0.00
2023-03-28T01:02:34.070Z,0.00
2023-03-28T01:03:34.206Z,0.00
2023-03-28T01:04:33.981Z,0.00
2023-03-28T01:05:33.978Z,0.00
2023-03-28T01:06:33.990Z,0.00
2023-03-28T01:07:33.971Z,0.00
2023-03-28T01:08:33.979Z,0.00
2023-03-28T01:09:33.953Z,0.00
2023-03-28T01:10:33.946Z,0.00
2023-03-28T01:11:33.938Z,0.00
2023-03-28T01:12:33.946Z,0.00
2023-03-28T01:13:33.958Z,0.00
2023-03-28T01:14:33.930Z,0.00
2023-03-28T01:15:33.989Z,0.00
2023-03-28T01:16:33.948Z,0.00
2023-03-28T01:17:33.935Z,0.00
2023-03-28T01:18:33.932Z,0.00
2023-03-28T01:19:33.905Z,0.00
2023-03-28T01:20:33.894Z,0.00
2023-03-28T01:21:33.884Z,0.00
2023-03-28T01:22:33.883Z,0.00
2023-03-28T01:23:33.873Z,0.00
2023-03-28T01:24:33.876Z,0.00
2023-03-28T01:25:33.867Z,0.00
2023-03-28T01:26:33.868Z,0.00
2023-03-28T01:27:33.861Z,0.00
2023-03-28T01:28:33.855Z,0.00
2023-03-28T01:29:33.849Z,0.00
2023-03-28T01:30:33.839Z,0.00
2023-03-28T01:31:33.930Z,0.00
2023-03-28T01:32:33.845Z,0.00
2023-03-28T01:33:33.835Z,0.00
2023-03-28T01:34:33.838Z,0.00
2023-03-28T01:35:33.860Z,0.00
2023-03-28T01:36:35.437Z,0.00
2023-03-28T01:37:33.806Z,0.00
2023-03-28T01:38:33.806Z,0.00
2023-03-28T01:39:33.793Z,0.00
2023-03-28T01:40:33.787Z,0.00
2023-03-28T01:41:33.781Z,0.00
2023-03-28T01:42:33.789Z,0.00
2023-03-28T01:43:33.768Z,0.00
2023-03-28T01:44:33.771Z,0.00
2023-03-28T01:45:33.766Z,0.00
2023-03-28T01:46:33.759Z,0.00
2023-03-28T01:47:33.780Z,0.00
2023-03-28T01:48:33.751Z,0.00
2023-03-28T01:49:33.741Z,0.00
2023-03-28T01:50:33.753Z,0.00
2023-03-28T01:51:33.728Z,0.00
2023-03-28T01:52:33.725Z,0.00
2023-03-28T01:53:34.044Z,0.00
2023-03-28T01:54:33.710Z,0.00
2023-03-28T01:55:33.705Z,0.00
2023-03-28T01:56:33.736Z,0.00
2023-03-28T01:57:33.730Z,0.00
2023-03-28T01:58:33.700Z,0.00
2023-03-28T01:59:33.682Z,0.00
2023-03-28T02:00:33.682Z,0.00
2023-03-28T02:01:33.703Z,0.00
2023-03-28T02:02:33.748Z,0.00
2023-03-28T02:03:33.703Z,0.00
2023-03-28T02:04:33.709Z,0.00
2023-03-28T02:05:33.660Z,0.00
2023-03-28T02:06:33.681Z,0.00
2023-03-28T02:07:33.643Z,0.00
2023-03-28T02:08:33.639Z,0.00
2023-03-28T02:09:33.637Z,0.00
2023-03-28T02:10:33.628Z,0.00
2023-03-28T02:11:33.628Z,0.00
2023-03-28T02:12:33.618Z,0.00
2023-03-28T02:13:33.613Z,0.00
2023-03-28T02:14:33.620Z,0.00
2023-03-28T02:15:33.603Z,0.00
2023-03-28T02:16:33.628Z,0.00
2023-03-28T02:17:33.637Z,0.00
2023-03-28T02:18:33.597Z,0.00
2023-03-28T02:19:33.586Z,0.00
2023-03-28T02:20:33.581Z,0.00
2023-03-28T02:21:33.572Z,0.00
2023-03-28T02:22:33.597Z,0.00
2023-03-28T02:23:33.561Z,0.00
2023-03-28T02:24:33.573Z,0.00
2023-03-28T02:25:33.566Z,0.00
2023-03-28T02:26:33.582Z,0.00
2023-03-28T02:27:33.560Z,0.00
2023-03-28T02:28:33.554Z,0.00
2023-03-28T02:29:33.532Z,0.00
2023-03-28T02:30:33.531Z,0.00
2023-03-28T02:31:33.569Z,0.00
2023-03-28T02:32:33.558Z,0.00
2023-03-28T02:33:33.511Z,0.00
2023-03-28T02:34:33.510Z,0.00
2023-03-28T02:35:33.552Z,0.00
2023-03-28T02:36:33.498Z,0.00
2023-03-28T02:37:33.502Z,0.00
2023-03-28T02:38:33.513Z,0.00
2023-03-28T02:39:33.484Z,0.00
2023-03-28T02:40:33.476Z,0.00
2023-03-28T02:41:33.482Z,0.00
2023-03-28T02:42:33.468Z,0.00
2023-03-28T02:43:33.458Z,0.00
2023-03-28T02:44:33.455Z,0.00
2023-03-28T02:45:34.464Z,0.00
2023-03-28T02:50:47.588Z,0.00
2023-03-28T02:51:47.584Z,0.00
2023-03-28T02:52:47.578Z,0.00
2023-03-28T02:53:47.593Z,0.00
2023-03-28T02:54:47.568Z,0.00
2023-03-28T02:55:47.559Z,0.00
2023-03-28T02:56:47.591Z,0.00
2023-03-28T02:57:47.547Z,0.00
2023-03-28T02:58:47.545Z,0.00
2023-03-28T02:59:47.536Z,0.00
2023-03-28T03:00:47.532Z,0.00
2023-03-28T03:01:47.542Z,0.00
2023-03-28T03:02:47.582Z,0.00
2023-03-28T03:03:47.554Z,0.00
2023-03-28T03:04:47.514Z,0.00
2023-03-28T03:05:47.502Z,0.00
2023-03-28T03:06:47.504Z,0.00
2023-03-28T03:07:47.497Z,0.00
2023-03-28T03:08:47.489Z,0.00
2023-03-28T03:09:47.510Z,0.00
2023-03-28T03:10:47.485Z,0.00
2023-03-28T03:11:47.472Z,0.00
2023-03-28T03:12:47.468Z,0.00
2023-03-28T03:13:47.465Z,0.00
2023-03-28T03:14:47.460Z,0.00
2023-03-28T03:15:47.458Z,0.00
2023-03-28T03:16:47.451Z,0.00
2023-03-28T03:17:47.455Z,0.00
2023-03-28T03:18:47.437Z,0.00
2023-03-28T03:19:47.433Z,0.00
2023-03-28T03:20:47.429Z,0.00
2023-03-28T03:21:47.425Z,0.00
2023-03-28T03:22:47.420Z,0.00
2023-03-28T03:23:47.405Z,0.00
2023-03-28T03:24:47.401Z,0.00
2023-03-28T03:25:47.418Z,0.00
2023-03-28T03:26:47.395Z,0.00
2023-03-28T03:27:47.392Z,0.00
2023-03-28T03:28:47.388Z,0.00
2023-03-28T03:29:47.377Z,0.00
2023-03-28T03:30:47.373Z,0.00
2023-03-28T03:31:47.427Z,0.00
2023-03-28T03:32:47.380Z,0.00
2023-03-28T03:33:47.365Z,0.00
2023-03-28T03:34:47.343Z,0.00
2023-03-28T03:35:47.399Z,0.00
2023-03-28T03:36:47.337Z,0.00
2023-03-28T03:37:47.329Z,0.00
2023-03-28T03:38:47.329Z,0.00
2023-03-28T03:39:47.316Z,0.00
2023-03-28T03:40:47.316Z,0.00
2023-03-28T03:41:47.324Z,0.00
2023-03-28T03:42:47.306Z,0.00
2023-03-28T03:43:47.439Z,0.00
2023-03-28T03:44:47.296Z,0.00
2023-03-28T03:45:47.307Z,0.00
2023-03-28T03:46:47.307Z,0.00
2023-03-28T03:47:47.311Z,0.00
2023-03-28T03:48:49.985Z,0.00
2023-03-28T03:49:47.263Z,0.00
2023-03-28T03:50:47.272Z,0.00
2023-03-28T03:51:47.260Z,0.00
2023-03-28T03:52:47.258Z,0.00
2023-03-28T03:53:47.238Z,0.00
2023-03-28T03:54:47.242Z,0.00
2023-03-28T03:55:47.228Z,0.00
2023-03-28T03:56:47.240Z,0.00
2023-03-28T03:57:47.250Z,0.00
2023-03-28T03:58:47.218Z,0.00
2023-03-28T03:59:47.217Z,0.00
2023-03-28T04:00:47.262Z,0.00
2023-03-28T04:01:47.216Z,0.00
2023-03-28T04:02:47.274Z,0.00
2023-03-28T04:03:47.246Z,0.00
2023-03-28T04:04:47.185Z,0.00
2023-03-28T04:05:47.176Z,0.00
2023-03-28T04:06:47.175Z,0.00
2023-03-28T04:07:47.168Z,0.00
2023-03-28T04:08:47.160Z,0.00
2023-03-28T04:09:47.166Z,0.00
2023-03-28T04:10:47.451Z,0.00
2023-03-28T04:11:47.146Z,0.00
2023-03-28T04:12:47.145Z,0.00
2023-03-28T04:13:47.153Z,0.00
2023-03-28T04:14:47.162Z,0.00
2023-03-28T04:15:47.198Z,0.00
2023-03-28T04:16:47.121Z,0.00
2023-03-28T04:17:47.127Z,0.00
2023-03-28T04:18:47.119Z,4.00
2023-03-28T04:19:47.105Z,4.00
2023-03-28T04:20:47.112Z,0.00
2023-03-28T04:21:47.086Z,0.00
2023-03-28T04:22:47.087Z,0.00
2023-03-28T04:23:47.077Z,0.00
2023-03-28T04:24:47.084Z,4.00
2023-03-28T04:25:47.059Z,0.00
2023-03-28T04:26:47.064Z,4.00
2023-03-28T04:27:47.180Z,4.00
2023-03-28T04:28:47.060Z,4.00
2023-03-28T04:29:47.067Z,8.00
2023-03-28T04:30:47.048Z,8.00
2023-03-28T04:31:47.078Z,8.00
2023-03-28T04:32:47.084Z,12.00
2023-03-28T04:33:47.028Z,12.00
2023-03-28T04:34:47.039Z,12.00
2023-03-28T04:35:47.036Z,16.00
2023-03-28T04:36:47.016Z,16.00
2023-03-28T04:37:47.008Z,20.00
2023-03-28T04:38:47.003Z,24.00
2023-03-28T04:39:46.996Z,24.00
2023-03-28T04:40:47.000Z,28.00
2023-03-28T04:41:47.046Z,32.00
2023-03-28T04:42:46.979Z,40.00
2023-03-28T04:43:46.977Z,44.00
2023-03-28T04:44:46.975Z,52.00
2023-03-28T04:45:47.007Z,60.00
2023-03-28T04:46:46.967Z,68.00
2023-03-28T04:47:46.994Z,76.00
2023-03-28T04:48:46.962Z,88.00
2023-03-28T04:49:46.947Z,100.00
2023-03-28T04:50:46.944Z,100.00
2023-03-28T04:51:46.933Z,104.00
2023-03-28T04:52:46.935Z,104.00
2023-03-28T04:53:46.926Z,112.00
2023-03-28T04:54:46.921Z,120.00
2023-03-28T04:55:46.910Z,132.00
2023-03-28T04:56:46.957Z,148.00
2023-03-28T04:57:46.901Z,168.00
2023-03-28T04:58:46.901Z,192.00
2023-03-28T04:59:46.902Z,208.00
2023-03-28T05:00:46.888Z,220.00
2023-03-28T05:01:46.903Z,232.00
2023-03-28T05:02:46.946Z,268.00
2023-03-28T05:03:46.890Z,308.00
2023-03-28T05:04:46.866Z,340.00
2023-03-28T05:05:46.856Z,344.00
2023-03-28T05:06:46.853Z,364.00
2023-03-28T05:07:46.843Z,400.00
2023-03-28T05:08:46.849Z,396.00
2023-03-28T05:09:46.834Z,396.00
2023-03-28T05:10:46.830Z,400.00
2023-03-28T05:11:46.821Z,420.00
2023-03-28T05:12:46.821Z,464.00
2023-03-28T05:13:46.813Z,492.00
2023-03-28T05:14:46.814Z,540.00
2023-03-28T05:15:46.802Z,548.00
2023-03-28T05:16:46.939Z,536.00
2023-03-28T05:17:46.830Z,500.00
2023-03-28T05:18:46.787Z,496.00
2023-03-28T05:19:46.776Z,508.00
2023-03-28T05:20:46.795Z,532.00
2023-03-28T05:21:46.768Z,576.00
2023-03-28T05:22:46.770Z,656.00
2023-03-28T05:23:52.341Z,692.00
2023-03-28T05:24:46.754Z,684.00
2023-03-28T05:25:46.751Z,732.00
2023-03-28T05:26:46.743Z,832.00
2023-03-28T05:27:46.733Z,992.00
2023-03-28T05:28:46.749Z,1060.00
2023-03-28T05:29:46.748Z,1064.00
2023-03-28T05:30:46.728Z,1056.00
2023-03-28T05:31:46.777Z,1068.00
2023-03-28T05:32:46.739Z,1120.00
2023-03-28T05:33:46.758Z,1108.00
2023-03-28T05:34:46.711Z,1052.00
2023-03-28T05:35:46.705Z,1032.00
2023-03-28T05:36:46.693Z,1072.00
2023-03-28T05:37:47.251Z,1124.00
2023-03-28T05:38:46.692Z,1096.00
2023-03-28T05:39:46.674Z,1164.00
2023-03-28T05:40:46.671Z,1200.00
2023-03-28T05:41:46.682Z,1208.00
2023-03-28T05:42:46.685Z,1236.00
2023-03-28T05:43:46.654Z,1332.00
2023-03-28T05:44:46.663Z,1372.00
2023-03-28T05:45:46.693Z,1268.00
2023-03-28T05:46:46.641Z,1064.00
2023-03-28T05:47:46.662Z,952.00
2023-03-28T05:48:49.272Z,924.00
2023-03-28T05:49:46.646Z,916.00
2023-03-28T05:50:46.621Z,996.00
2023-03-28T05:51:46.621Z,1040.00
2023-03-28T05:52:46.611Z,1448.00
2023-03-28T05:53:46.603Z,1220.00
2023-03-28T05:54:50.562Z,1320.00
2023-03-28T05:55:46.594Z,1192.00
2023-03-28T05:56:46.608Z,1084.00
2023-03-28T05:57:46.585Z,1072.00
2023-03-28T05:58:46.578Z,1084.00
2023-03-28T05:59:46.575Z,1104.00
2023-03-28T06:00:46.571Z,1124.00
2023-03-28T06:01:46.569Z,1140.00
2023-03-28T06:02:46.571Z,1172.00
2023-03-28T06:03:46.582Z,1212.00
2023-03-28T06:04:46.582Z,1212.00
2023-03-28T06:05:46.570Z,1236.00
2023-03-28T06:06:46.541Z,1264.00
2023-03-28T06:07:46.538Z,1296.00
2023-03-28T06:08:46.528Z,1352.00
2023-03-28T06:09:46.523Z,1388.00
2023-03-28T06:10:46.521Z,1364.00
2023-03-28T06:11:46.519Z,1384.00
2023-03-28T06:12:46.507Z,1396.00
2023-03-28T06:13:46.510Z,1420.00
2023-03-28T06:14:47.441Z,1488.00
2023-03-28T06:15:46.490Z,1536.00
2023-03-28T06:16:46.565Z,1608.00
2023-03-28T06:17:46.529Z,1608.00
2023-03-28T06:18:46.478Z,1892.00
2023-03-28T06:19:46.521Z,1588.00
2023-03-28T06:20:46.467Z,1744.00
2023-03-28T06:21:46.486Z,1708.00
2023-03-28T06:22:46.455Z,1740.00
2023-03-28T06:23:46.444Z,1732.00
2023-03-28T06:24:46.452Z,1816.00
2023-03-28T06:25:46.440Z,1816.00
2023-03-28T06:26:46.441Z,1824.00
2023-03-28T06:27:46.428Z,1868.00
2023-03-28T06:28:46.434Z,2000.00
2023-03-28T06:29:46.418Z,1940.00
2023-03-28T06:30:46.419Z,2040.00
2023-03-28T06:31:46.462Z,2132.00
2023-03-28T06:32:46.484Z,2052.00
2023-03-28T06:33:46.400Z,2328.00
2023-03-28T06:34:46.409Z,2160.00
2023-03-28T06:35:46.405Z,2164.00
2023-03-28T06:36:46.390Z,2244.00
2023-03-28T06:37:46.417Z,2412.00
2023-03-28T06:38:46.454Z,2316.00
2023-03-28T06:39:46.379Z,2392.00
2023-03-28T06:40:46.372Z,3040.00
2023-03-28T06:41:46.376Z,2672.00
2023-03-28T06:42:46.369Z,2588.00
2023-03-28T06:43:46.356Z,2588.00
2023-03-28T06:44:46.355Z,2840.00
2023-03-28T06:45:46.341Z,2688.00
2023-03-28T06:46:46.421Z,3008.00
2023-03-28T06:47:46.373Z,2904.00
2023-03-28T06:48:46.346Z,2892.00
2023-03-28T06:49:46.326Z,2968.00
2023-03-28T06:50:46.329Z,2572.00
2023-03-28T06:51:46.314Z,3144.00
2023-03-28T06:52:46.311Z,3804.00
2023-03-28T06:53:46.341Z,3368.00
2023-03-28T06:54:48.442Z,2236.00
2023-03-28T06:55:46.300Z,4340.00
2023-03-28T06:56:46.348Z,4528.00
2023-03-28T06:57:46.289Z,4736.00
2023-03-28T06:58:46.292Z,2480.00
2023-03-28T06:59:46.277Z,2520.00
2023-03-28T07:00:46.278Z,4996.00
2023-03-28T07:01:46.321Z,5520.00
2023-03-28T07:02:46.355Z,5292.00
2023-03-28T07:03:46.583Z,5348.00
2023-03-28T07:04:46.263Z,5364.00
2023-03-28T07:05:46.266Z,5472.00
2023-03-28T07:06:46.270Z,5516.00
2023-03-28T07:07:46.249Z,5628.00
2023-03-28T07:08:46.266Z,5708.00
2023-03-28T07:09:46.270Z,5968.00
2023-03-28T07:10:46.241Z,7112.00
2023-03-28T07:11:46.266Z,6524.00
2023-03-28T07:12:46.230Z,6212.00
2023-03-28T07:13:46.233Z,6200.00
2023-03-28T07:14:46.218Z,6284.00
2023-03-28T07:15:46.223Z,6392.00
2023-03-28T07:16:46.258Z,6748.00
2023-03-28T07:17:46.226Z,6648.00
2023-03-28T07:18:46.209Z,6684.00
2023-03-28T07:19:46.212Z,7036.00
2023-03-28T07:20:51.975Z,9188.00
2023-03-28T07:21:46.206Z,9148.00
2023-03-28T07:22:46.199Z,7452.00
2023-03-28T07:23:46.204Z,8344.00
2023-03-28T07:24:46.194Z,8508.00
2023-03-28T07:25:46.212Z,8180.00
2023-03-28T07:26:46.194Z,8212.00
2023-03-28T07:27:46.201Z,8448.00
2023-03-28T07:28:46.175Z,9028.00
2023-03-28T07:29:46.198Z,10020.00
2023-03-28T07:30:46.176Z,15872.00
2023-03-28T07:31:46.220Z,23648.00
2023-03-28T07:33:46.207Z,31872.00
2023-03-28T07:34:46.206Z,29216.00
2023-03-28T07:35:46.201Z,31328.00
2023-03-28T07:36:46.162Z,34912.00
2023-03-28T07:37:46.168Z,31264.00
2023-03-28T07:38:48.584Z,31008.00
2023-03-28T07:39:46.168Z,35424.00
2023-03-28T07:40:46.152Z,27360.00
2023-03-28T07:41:46.190Z,35520.00
2023-03-28T07:42:46.155Z,34624.00
2023-03-28T07:43:46.152Z,34816.00
2023-03-28T07:44:46.149Z,37216.00
2023-03-28T07:45:46.183Z,35808.00
2023-03-28T07:46:46.144Z,35104.00
2023-03-28T07:47:46.151Z,37920.00
2023-03-28T07:48:46.144Z,37312.00
2023-03-28T07:49:46.148Z,36704.00
2023-03-28T07:50:46.145Z,35968.00
2023-03-28T07:51:46.147Z,34656.00
2023-03-28T07:52:46.139Z,35680.00
2023-03-28T07:53:46.182Z,34944.00
2023-03-28T07:54:46.139Z,32768.00
2023-03-28T07:55:54.262Z,34016.00
2023-03-28T07:56:46.149Z,34080.00
2023-03-28T07:57:46.162Z,38176.00
2023-03-28T07:58:46.155Z,40320.00
2023-03-28T07:59:46.144Z,38336.00
2023-03-28T08:00:46.138Z,27232.00
2023-03-28T08:01:46.139Z,44640.00
2023-03-28T08:02:46.234Z,40640.00
2023-03-28T08:03:46.251Z,39968.00
2023-03-28T08:04:46.135Z,43296.00
2023-03-28T08:05:46.183Z,44032.00
2023-03-28T08:06:46.137Z,42720.00
2023-03-28T08:07:46.216Z,45216.00
2023-03-28T08:08:46.136Z,43648.00
2023-03-28T08:09:46.139Z,40736.00
2023-03-28T08:10:46.146Z,47552.00
2023-03-28T08:11:46.147Z,47264.00
2023-03-28T08:12:46.158Z,43648.00
2023-03-28T08:13:46.187Z,45504.00
2023-03-28T08:14:46.140Z,45376.00
2023-03-28T08:15:46.200Z,46016.00
2023-03-28T08:16:46.139Z,52992.00
2023-03-28T08:17:46.156Z,48128.00
2023-03-28T08:18:48.715Z,39200.00
2023-03-28T08:19:46.144Z,52672.00
2023-03-28T08:20:46.143Z,56384.00
2023-03-28T08:21:46.147Z,39392.00
2023-03-28T08:22:46.144Z,44960.00
2023-03-28T08:23:46.150Z,51456.00
2023-03-28T08:24:46.147Z,42464.00
2023-03-28T08:25:46.164Z,44832.00
2023-03-28T08:26:48.102Z,47360.00
2023-03-28T08:27:46.154Z,41760.00
2023-03-28T08:28:46.154Z,42912.00
2023-03-28T08:29:46.184Z,41888.00
2023-03-28T08:30:46.166Z,40736.00
2023-03-28T08:31:46.307Z,48576.00
2023-03-28T08:32:48.735Z,53056.00
2023-03-28T08:33:46.185Z,47776.00
2023-03-28T08:34:46.163Z,50368.00
2023-03-28T08:35:46.232Z,55008.00
2023-03-28T08:36:46.175Z,50304.00
2023-03-28T08:37:46.172Z,51104.00
2023-03-28T08:38:46.186Z,59712.00
2023-03-28T08:39:46.181Z,64512.00
2023-03-28T08:40:46.179Z,22944.00
2023-03-28T08:41:46.198Z,5180.00
2023-03-28T08:42:46.185Z,3404.00
2023-03-28T08:43:46.196Z,58176.00
2023-03-28T08:44:47.992Z,47712.00
2023-03-28T08:45:46.225Z,6784.00
2023-03-28T08:46:46.226Z,59040.00
2023-03-28T08:47:46.250Z,58848.00
2023-03-28T08:48:46.205Z,63328.00
2023-03-28T08:49:46.216Z,65984.00
2023-03-28T08:50:46.227Z,64192.00
2023-03-28T08:51:46.223Z,62048.00
2023-03-28T08:52:46.231Z,60672.00
2023-03-28T08:53:46.233Z,63520.00
2023-03-28T08:54:46.236Z,66336.00
2023-03-28T08:55:46.242Z,64352.00
2023-03-28T08:56:46.259Z,61312.00
2023-03-28T08:57:46.256Z,6416.00
2023-03-28T08:58:46.249Z,3940.00
2023-03-28T08:59:46.254Z,60256.00
2023-03-28T09:00:46.255Z,57600.00
2023-03-28T09:01:46.366Z,60352.00
2023-03-28T09:02:46.397Z,63072.00
2023-03-28T09:03:46.381Z,24736.00
2023-03-28T09:04:46.277Z,7100.00
2023-03-28T09:05:46.301Z,69536.00
2023-03-28T09:06:46.295Z,68672.00
2023-03-28T09:07:46.291Z,9760.00
2023-03-28T09:08:46.292Z,8212.00
2023-03-28T09:09:46.316Z,27904.00
2023-03-28T09:10:46.298Z,14608.00
2023-03-28T09:11:46.309Z,21632.00
2023-03-28T09:12:46.322Z,4552.00
2023-03-28T09:13:46.317Z,4572.00
2023-03-28T09:14:46.325Z,8652.00
2023-03-28T09:15:46.325Z,9584.00
2023-03-28T09:16:46.384Z,9552.00
2023-03-28T09:17:46.355Z,14780.00
2023-03-28T09:18:46.327Z,8456.00
2023-03-28T09:19:48.789Z,12012.00
2023-03-28T09:20:46.343Z,12868.00
2023-03-28T09:21:46.343Z,8208.00
2023-03-28T09:22:46.344Z,7056.00
2023-03-28T09:23:46.348Z,5040.00
2023-03-28T09:24:46.342Z,3424.00
2023-03-28T09:25:46.364Z,3088.00
2023-03-28T09:26:46.349Z,3596.00
2023-03-28T09:27:46.363Z,4984.00
2023-03-28T09:28:46.352Z,6356.00
2023-03-28T09:29:46.369Z,6108.00
2023-03-28T09:30:46.359Z,5128.00
2023-03-28T09:31:46.390Z,5208.00
2023-03-28T09:32:46.444Z,6840.00
2023-03-28T09:33:46.388Z,8232.00
2023-03-28T09:34:46.381Z,6428.00
2023-03-28T09:35:46.419Z,5300.00
2023-03-28T09:36:49.879Z,5404.00
2023-03-28T09:37:46.369Z,5656.00
2023-03-28T09:38:46.372Z,4360.00
2023-03-28T09:39:46.367Z,5060.00
2023-03-28T09:40:46.366Z,5808.00
2023-03-28T09:41:46.367Z,8240.00
2023-03-28T09:42:46.372Z,11036.00
2023-03-28T09:43:46.377Z,9100.00
2023-03-28T09:44:54.135Z,10044.00
2023-03-28T09:45:46.414Z,7316.00
2023-03-28T09:46:46.380Z,9148.00
2023-03-28T09:47:46.538Z,10304.00
2023-03-28T09:48:46.469Z,11200.00
2023-03-28T09:49:46.394Z,8088.00
2023-03-28T09:50:46.370Z,10584.00
2023-03-28T09:51:46.373Z,9700.00
2023-03-28T09:52:46.371Z,4816.00
2023-03-28T09:53:46.376Z,3364.00
2023-03-28T09:54:46.368Z,3176.00
2023-03-28T09:55:57.975Z,4668.00
2023-03-28T09:56:46.403Z,4948.00
2023-03-28T09:57:46.365Z,4428.00
2023-03-28T09:58:46.371Z,3848.00
2023-03-28T09:59:46.379Z,5980.00
2023-03-28T10:00:46.368Z,7804.00
2023-03-28T10:01:46.431Z,6796.00
2023-03-28T10:02:46.421Z,4992.00
2023-03-28T10:03:46.365Z,4524.00
2023-03-28T10:04:46.436Z,5708.00
2023-03-28T10:05:46.399Z,7968.00
2023-03-28T10:06:46.366Z,11496.00
2023-03-28T10:07:46.368Z,14816.00
2023-03-28T10:08:46.362Z,14888.00
2023-03-28T10:09:46.363Z,14912.00
2023-03-28T10:10:46.365Z,14036.00
2023-03-28T10:11:46.369Z,9644.00
2023-03-28T10:12:46.366Z,10360.00
2023-03-28T10:13:46.365Z,13284.00
2023-03-28T10:14:46.367Z,13148.00
2023-03-28T10:15:46.435Z,16640.00
2023-03-28T10:16:46.363Z,17088.00
2023-03-28T10:17:46.398Z,14504.00
2023-03-28T10:18:46.357Z,11868.00
2023-03-28T10:19:46.363Z,14960.00
2023-03-28T10:20:46.365Z,11692.00
2023-03-28T10:21:46.379Z,11564.00
2023-03-28T10:22:46.356Z,8468.00
2023-03-28T10:23:46.352Z,12388.00
2023-03-28T10:24:46.352Z,15352.00
2023-03-28T10:25:46.357Z,16256.00
2023-03-28T10:26:46.350Z,15920.00
2023-03-28T10:27:46.358Z,12132.00
2023-03-28T10:28:46.366Z,13276.00
2023-03-28T10:29:46.352Z,13640.00
2023-03-28T10:30:46.375Z,9932.00
2023-03-28T10:31:46.455Z,14648.00
2023-03-28T10:32:46.413Z,18144.00
2023-03-28T10:33:46.355Z,11808.00
2023-03-28T10:34:46.356Z,11972.00
2023-03-28T10:35:46.387Z,13268.00
2023-03-28T10:36:46.346Z,11364.00
2023-03-28T10:37:46.378Z,6444.00
2023-03-28T10:38:46.346Z,4860.00
2023-03-28T10:39:46.349Z,3792.00
2023-03-28T10:40:46.381Z,5048.00
2023-03-28T10:41:46.346Z,7948.00
2023-03-28T10:42:46.354Z,12320.00
2023-03-28T10:43:46.346Z,12008.00
2023-03-28T10:44:46.341Z,7448.00
2023-03-28T10:45:46.345Z,8280.00
2023-03-28T10:46:46.431Z,7888.00
2023-03-28T10:47:46.349Z,8740.00
2023-03-28T10:48:46.348Z,7612.00
2023-03-28T10:49:46.352Z,6236.00
2023-03-28T10:50:46.338Z,6064.00
2023-03-28T10:51:46.341Z,5076.00
2023-03-28T10:52:46.338Z,4420.00
2023-03-28T10:53:46.374Z,5652.00
2023-03-28T10:54:46.340Z,7820.00
2023-03-28T10:55:46.340Z,7856.00
2023-03-28T10:56:46.379Z,7504.00
2023-03-28T10:57:46.341Z,4796.00
2023-03-28T10:58:46.348Z,4464.00
2023-03-28T10:59:46.337Z,3512.00
2023-03-28T11:00:46.332Z,3720.00
2023-03-28T11:01:46.397Z,6052.00
2023-03-28T11:02:46.408Z,10280.00
2023-03-28T11:03:46.453Z,11008.00
2023-03-28T11:04:46.340Z,5832.00
2023-03-28T11:05:55.004Z,4084.00
2023-03-28T11:06:46.335Z,3868.00
2023-03-28T11:07:46.331Z,4556.00
2023-03-28T11:08:46.338Z,4328.00
2023-03-28T11:09:46.358Z,4712.00
2023-03-28T11:10:46.324Z,4760.00
2023-03-28T11:11:46.324Z,3472.00
2023-03-28T11:13:46.328Z,2880.00
2023-03-28T11:14:46.317Z,4064.00
2023-03-28T11:15:46.368Z,5596.00
2023-03-28T11:16:46.323Z,5732.00
2023-03-28T11:17:46.354Z,5380.00
2023-03-28T11:18:46.326Z,5884.00
2023-03-28T11:19:46.321Z,8064.00
2023-03-28T11:20:46.344Z,8752.00
2023-03-28T11:21:46.319Z,9240.00
2023-03-28T11:22:58.822Z,4044.00
2023-03-28T11:23:46.323Z,8272.00
2023-03-28T11:24:46.312Z,9952.00
2023-03-28T11:25:46.333Z,10008.00
2023-03-28T11:26:46.311Z,9124.00
2023-03-28T11:27:46.311Z,10188.00
2023-03-28T11:28:46.882Z,8768.00
2023-03-28T11:29:46.301Z,6556.00
2023-03-28T11:30:46.318Z,5704.00
2023-03-28T11:31:46.353Z,5624.00
2023-03-28T11:32:46.334Z,5696.00
2023-03-28T11:33:46.303Z,4128.00
2023-03-28T11:34:46.312Z,3244.00
2023-03-28T11:35:46.382Z,3060.00
2023-03-28T11:36:46.309Z,3080.00
2023-03-28T11:37:46.300Z,3452.00
2023-03-28T11:38:46.306Z,4536.00
2023-03-28T11:39:46.306Z,9236.00
2023-03-28T11:40:46.297Z,9284.00
2023-03-28T11:41:46.313Z,7964.00
2023-03-28T11:42:46.295Z,8688.00
2023-03-28T11:43:46.297Z,10408.00
2023-03-28T11:44:46.297Z,8776.00
2023-03-28T11:45:52.281Z,9632.00
2023-03-28T11:46:46.362Z,7376.00
2023-03-28T11:47:46.298Z,5944.00
2023-03-28T11:48:46.290Z,9344.00
2023-03-28T11:49:46.282Z,10032.00
2023-03-28T11:50:46.282Z,9452.00
2023-03-28T11:51:46.287Z,9628.00
2023-03-28T11:52:46.281Z,8904.00
2023-03-28T11:53:46.277Z,7336.00
2023-03-28T11:54:46.283Z,5176.00
2023-03-28T11:55:46.276Z,5340.00
2023-03-28T11:56:46.307Z,9760.00
2023-03-28T11:57:46.480Z,8148.00
2023-03-28T11:58:46.275Z,8308.00
2023-03-28T11:59:46.270Z,4892.00
2023-03-28T12:00:46.304Z,7864.00
2023-03-28T12:01:46.278Z,6632.00
2023-03-28T12:02:46.309Z,7432.00
2023-03-28T12:03:46.331Z,6376.00
2023-03-28T12:04:46.302Z,6008.00
2023-03-28T12:05:46.270Z,4888.00
2023-03-28T12:06:55.939Z,4904.00
2023-03-28T12:07:46.277Z,6720.00
2023-03-28T12:08:46.266Z,7764.00
2023-03-28T12:09:46.264Z,6200.00
2023-03-28T12:10:46.263Z,6016.00
2023-03-28T12:11:46.274Z,6364.00
2023-03-28T12:12:46.265Z,4876.00
2023-03-28T12:13:49.515Z,3576.00
2023-03-28T12:14:46.268Z,3800.00
2023-03-28T12:15:46.257Z,4016.00
2023-03-28T12:16:46.275Z,4932.00
2023-03-28T12:17:46.268Z,5304.00
2023-03-28T12:18:46.261Z,4340.00
2023-03-28T12:19:46.253Z,3448.00
2023-03-28T12:20:46.253Z,3696.00
2023-03-28T12:21:46.259Z,2868.00
2023-03-28T12:22:46.260Z,3304.00
2023-03-28T12:23:46.249Z,3064.00
2023-03-28T12:24:46.252Z,8016.00
2023-03-28T12:25:46.242Z,2836.00
2023-03-28T12:26:46.249Z,8300.00
2023-03-28T12:27:46.242Z,8836.00
2023-03-28T12:28:46.247Z,8036.00
2023-03-28T12:29:46.316Z,8952.00
2023-03-28T12:30:46.289Z,3536.00
2023-03-28T12:31:46.245Z,3332.00
2023-03-28T12:32:46.283Z,2808.00
2023-03-28T12:33:46.240Z,3060.00
2023-03-28T12:34:46.248Z,3748.00